KOTM/OTM METAR and TAF weather

Enter ICAO airport designator
Station Type Date Time Source
KOTM METAR 2020/06/01 15:53 UTC NOAA

KOTM 011553Z AUTO 18012KT 10SM FEW120 22/16 A3010 RMK AO2 SLP189 T02220161


Station Type Date Time Source
KOTM Decoded METAR 2020/06/01 15:53 UTC NOAA

OTTUMWA INDUSTRIAL AIRPORT, IA, United States (KOTM) 41-06N 092-27W 256M
Jun 01, 2020 - 11:53 AM EDT / 2020.06.01 1553 UTC
Wind: from the S (180 degrees) at 14 MPH (12 KT):0
Visibility: 10 mile(s):0
Sky conditions: mostly clear
Temperature: 72.0 F (22.2 C)
Dew Point: 61.0 F (16.1 C)
Relative Humidity: 68%
Pressure (altimeter): 30.1 in. Hg (1019 hPa)
ob: KOTM 011553Z AUTO 18012KT 10SM FEW120 22/16 A3010 RMK AO2 SLP189 T02220161
cycle: 16

Station Type Date Time Source
KOTM TAF 2020/06/01 12:30 UTC NOAA

TAF KOTM 011129Z 0112/0212 17015KT P6SM SKC
FM011600 19017G27KT P6SM SCT250
FM012300 21017KT P6SM FEW250
FM020300 20012KT P6SM FEW250

Example: see airport list